sensor_id;sensor_type;location;lat;lon;timestamp;P1;durP1;ratioP1;P2;durP2;ratioP2
79124;SDS011;68527;39.470;-0.376;2024-01-11T00:00:42;3.10;;;1.60;;
79124;SDS011;68527;39.470;-0.376;2024-01-11T00:03:09;3.10;;;1.40;;
79124;SDS011;68527;39.470;-0.376;2024-01-11T00:05:34;2.10;;;1.30;;
79124;SDS011;68527;39.470;-0.376;2024-01-11T00:08:00;2.80;;;1.50;;
79124;SDS011;68527;39.470;-0.376;2024-01-11T00:10:26;3.20;;;1.70;;
79124;SDS011;68527;39.470;-0.376;2024-01-11T00:12:53;3.10;;;1.70;;
79124;SDS011;68527;39.470;-0.376;2024-01-11T00:15:18;2.60;;;1.30;;
79124;SDS011;68527;39.470;-0.376;2024-01-11T00:17:44;2.60;;;1.50;;
79124;SDS011;68527;39.470;-0.376;2024-01-11T00:20:10;2.90;;;1.30;;
79124;SDS011;68527;39.470;-0.376;2024-01-11T00:22:37;3.80;;;1.70;;
79124;SDS011;68527;39.470;-0.376;2024-01-11T00:25:03;2.10;;;1.50;;
79124;SDS011;68527;39.470;-0.376;2024-01-11T00:27:29;8.70;;;1.40;;
79124;SDS011;68527;39.470;-0.376;2024-01-11T00:29:55;4.80;;;1.90;;
79124;SDS011;68527;39.470;-0.376;2024-01-11T00:32:22;3.00;;;1.50;;
79124;SDS011;68527;39.470;-0.376;2024-01-11T00:34:47;2.80;;;1.70;;
79124;SDS011;68527;39.470;-0.376;2024-01-11T00:37:13;2.50;;;1.40;;
79124;SDS011;68527;39.470;-0.376;2024-01-11T00:39:38;2.70;;;1.80;;
79124;SDS011;68527;39.470;-0.376;2024-01-11T00:42:06;2.70;;;1.80;;
79124;SDS011;68527;39.470;-0.376;2024-01-11T00:44:32;2.90;;;1.40;;
79124;SDS011;68527;39.470;-0.376;2024-01-11T00:46:58;3.90;;;2.10;;
79124;SDS011;68527;39.470;-0.376;2024-01-11T00:49:23;2.60;;;1.40;;
79124;SDS011;68527;39.470;-0.376;2024-01-11T00:51:50;2.80;;;1.90;;
79124;SDS011;68527;39.470;-0.376;2024-01-11T00:54:16;2.80;;;1.50;;
79124;SDS011;68527;39.470;-0.376;2024-01-11T00:56:42;1.60;;;1.20;;
79124;SDS011;68527;39.470;-0.376;2024-01-11T00:59:07;2.60;;;1.50;;
79124;SDS011;68527;39.470;-0.376;2024-01-11T01:01:34;3.60;;;1.60;;
79124;SDS011;68527;39.470;-0.376;2024-01-11T01:04:00;3.50;;;1.50;;
79124;SDS011;68527;39.470;-0.376;2024-01-11T01:06:25;3.00;;;1.70;;
79124;SDS011;68527;39.470;-0.376;2024-01-11T01:08:51;2.60;;;1.50;;
79124;SDS011;68527;39.470;-0.376;2024-01-11T01:11:18;2.90;;;1.60;;
79124;SDS011;68527;39.470;-0.376;2024-01-11T01:13:43;3.10;;;1.80;;
79124;SDS011;68527;39.470;-0.376;2024-01-11T01:16:09;3.20;;;1.60;;
79124;SDS011;68527;39.470;-0.376;2024-01-11T01:18:35;2.40;;;1.60;;
79124;SDS011;68527;39.470;-0.376;2024-01-11T01:21:03;3.30;;;1.50;;
79124;SDS011;68527;39.470;-0.376;2024-01-11T01:23:32;2.20;;;1.40;;
79124;SDS011;68527;39.470;-0.376;2024-01-11T01:25:58;2.30;;;1.30;;
79124;SDS011;68527;39.470;-0.376;2024-01-11T01:28:24;2.90;;;1.60;;
79124;SDS011;68527;39.470;-0.376;2024-01-11T01:30:50;2.10;;;1.50;;
79124;SDS011;68527;39.470;-0.376;2024-01-11T01:33:16;3.40;;;1.60;;
79124;SDS011;68527;39.470;-0.376;2024-01-11T01:35:41;2.10;;;1.50;;
79124;SDS011;68527;39.470;-0.376;2024-01-11T01:38:09;3.30;;;1.70;;
79124;SDS011;68527;39.470;-0.376;2024-01-11T01:40:34;2.10;;;1.50;;
79124;SDS011;68527;39.470;-0.376;2024-01-11T01:43:00;2.80;;;1.60;;
79124;SDS011;68527;39.470;-0.376;2024-01-11T01:45:26;2.10;;;1.30;;
79124;SDS011;68527;39.470;-0.376;2024-01-11T01:47:53;2.20;;;1.50;;
79124;SDS011;68527;39.470;-0.376;2024-01-11T01:50:20;2.40;;;1.30;;
79124;SDS011;68527;39.470;-0.376;2024-01-11T01:52:46;2.20;;;1.50;;
79124;SDS011;68527;39.470;-0.376;2024-01-11T01:55:12;3.20;;;1.40;;
79124;SDS011;68527;39.470;-0.376;2024-01-11T01:57:41;2.50;;;1.40;;
79124;SDS011;68527;39.470;-0.376;2024-01-11T02:00:08;3.10;;;1.30;;
79124;SDS011;68527;39.470;-0.376;2024-01-11T02:02:35;2.70;;;1.50;;
79124;SDS011;68527;39.470;-0.376;2024-01-11T02:05:02;3.10;;;1.30;;
79124;SDS011;68527;39.470;-0.376;2024-01-11T02:07:28;1.90;;;1.40;;
79124;SDS011;68527;39.470;-0.376;2024-01-11T02:09:54;2.70;;;1.60;;
79124;SDS011;68527;39.470;-0.376;2024-01-11T02:12:20;2.10;;;1.30;;
79124;SDS011;68527;39.470;-0.376;2024-01-11T02:14:47;2.90;;;1.50;;
79124;SDS011;68527;39.470;-0.376;2024-01-11T02:17:13;2.10;;;1.40;;
79124;SDS011;68527;39.470;-0.376;2024-01-11T02:19:39;3.00;;;1.30;;
79124;SDS011;68527;39.470;-0.376;2024-01-11T02:24:31;2.30;;;1.40;;
79124;SDS011;68527;39.470;-0.376;2024-01-11T02:26:59;3.30;;;1.60;;
79124;SDS011;68527;39.470;-0.376;2024-01-11T02:29:29;2.40;;;1.40;;
79124;SDS011;68527;39.470;-0.376;2024-01-11T02:31:55;1.70;;;1.30;;
79124;SDS011;68527;39.470;-0.376;2024-01-11T02:34:24;2.40;;;1.50;;
79124;SDS011;68527;39.470;-0.376;2024-01-11T02:36:53;2.50;;;1.30;;
79124;SDS011;68527;39.470;-0.376;2024-01-11T02:39:19;1.80;;;1.40;;
79124;SDS011;68527;39.470;-0.376;2024-01-11T02:41:45;2.10;;;1.30;;
79124;SDS011;68527;39.470;-0.376;2024-01-11T02:44:11;2.00;;;1.10;;
79124;SDS011;68527;39.470;-0.376;2024-01-11T02:46:38;1.80;;;1.30;;
79124;SDS011;68527;39.470;-0.376;2024-01-11T02:49:03;2.20;;;1.40;;
79124;SDS011;68527;39.470;-0.376;2024-01-11T02:51:29;2.10;;;1.40;;
79124;SDS011;68527;39.470;-0.376;2024-01-11T02:53:55;2.20;;;1.30;;
79124;SDS011;68527;39.470;-0.376;2024-01-11T02:56:22;1.80;;;1.30;;
79124;SDS011;68527;39.470;-0.376;2024-01-11T02:58:49;1.80;;;1.20;;
79124;SDS011;68527;39.470;-0.376;2024-01-11T03:01:14;1.50;;;1.20;;
79124;SDS011;68527;39.470;-0.376;2024-01-11T03:03:40;1.80;;;1.30;;
79124;SDS011;68527;39.470;-0.376;2024-01-11T03:06:06;2.00;;;1.20;;
79124;SDS011;68527;39.470;-0.376;2024-01-11T03:08:32;1.70;;;1.10;;
79124;SDS011;68527;39.470;-0.376;2024-01-11T03:10:58;1.80;;;1.10;;
79124;SDS011;68527;39.470;-0.376;2024-01-11T03:13:24;1.80;;;1.20;;
79124;SDS011;68527;39.470;-0.376;2024-01-11T03:15:51;2.10;;;1.50;;
79124;SDS011;68527;39.470;-0.376;2024-01-11T03:18:16;1.90;;;1.20;;
79124;SDS011;68527;39.470;-0.376;2024-01-11T03:20:42;2.10;;;1.40;;
79124;SDS011;68527;39.470;-0.376;2024-01-11T03:25:34;1.50;;;1.00;;
79124;SDS011;68527;39.470;-0.376;2024-01-11T03:28:00;3.00;;;1.50;;
79124;SDS011;68527;39.470;-0.376;2024-01-11T03:30:25;2.20;;;1.40;;
79124;SDS011;68527;39.470;-0.376;2024-01-11T03:32:51;1.90;;;1.20;;
79124;SDS011;68527;39.470;-0.376;2024-01-11T03:35:19;2.60;;;1.40;;
79124;SDS011;68527;39.470;-0.376;2024-01-11T03:37:45;1.60;;;1.20;;
79124;SDS011;68527;39.470;-0.376;2024-01-11T03:40:11;1.90;;;1.40;;
79124;SDS011;68527;39.470;-0.376;2024-01-11T03:42:37;1.70;;;1.10;;
79124;SDS011;68527;39.470;-0.376;2024-01-11T03:45:04;1.80;;;1.20;;
79124;SDS011;68527;39.470;-0.376;2024-01-11T03:47:30;1.80;;;1.40;;
79124;SDS011;68527;39.470;-0.376;2024-01-11T03:49:56;2.20;;;1.10;;
79124;SDS011;68527;39.470;-0.376;2024-01-11T03:52:21;2.00;;;1.10;;
79124;SDS011;68527;39.470;-0.376;2024-01-11T03:54:49;2.10;;;1.10;;
79124;SDS011;68527;39.470;-0.376;2024-01-11T03:57:14;1.90;;;1.20;;
79124;SDS011;68527;39.470;-0.376;2024-01-11T03:59:40;1.70;;;1.10;;
79124;SDS011;68527;39.470;-0.376;2024-01-11T04:02:06;2.20;;;1.60;;
79124;SDS011;68527;39.470;-0.376;2024-01-11T04:04:33;2.60;;;1.50;;
79124;SDS011;68527;39.470;-0.376;2024-01-11T04:06:59;1.60;;;1.20;;
79124;SDS011;68527;39.470;-0.376;2024-01-11T04:09:24;1.60;;;1.10;;
79124;SDS011;68527;39.470;-0.376;2024-01-11T04:14:17;2.60;;;1.30;;
79124;SDS011;68527;39.470;-0.376;2024-01-11T04:16:42;1.70;;;1.20;;
79124;SDS011;68527;39.470;-0.376;2024-01-11T04:19:08;2.00;;;1.30;;
79124;SDS011;68527;39.470;-0.376;2024-01-11T04:21:34;1.70;;;1.20;;
79124;SDS011;68527;39.470;-0.376;2024-01-11T04:24:01;2.20;;;1.50;;
79124;SDS011;68527;39.470;-0.376;2024-01-11T04:26:27;2.00;;;1.30;;
79124;SDS011;68527;39.470;-0.376;2024-01-11T04:28:52;2.50;;;1.30;;
79124;SDS011;68527;39.470;-0.376;2024-01-11T04:31:18;2.00;;;1.40;;
79124;SDS011;68527;39.470;-0.376;2024-01-11T04:33:46;2.00;;;1.30;;
79124;SDS011;68527;39.470;-0.376;2024-01-11T04:36:12;1.80;;;1.20;;
79124;SDS011;68527;39.470;-0.376;2024-01-11T04:38:38;2.40;;;1.40;;
79124;SDS011;68527;39.470;-0.376;2024-01-11T04:41:10;2.00;;;1.40;;
79124;SDS011;68527;39.470;-0.376;2024-01-11T04:43:38;2.10;;;1.20;;
79124;SDS011;68527;39.470;-0.376;2024-01-11T04:46:19;1.90;;;1.20;;
79124;SDS011;68527;39.470;-0.376;2024-01-11T04:48:47;2.10;;;1.40;;
79124;SDS011;68527;39.470;-0.376;2024-01-11T04:51:17;2.30;;;1.40;;
79124;SDS011;68527;39.470;-0.376;2024-01-11T04:53:46;2.00;;;1.20;;
79124;SDS011;68527;39.470;-0.376;2024-01-11T04:56:14;2.00;;;1.30;;
79124;SDS011;68527;39.470;-0.376;2024-01-11T04:58:41;1.90;;;1.30;;
79124;SDS011;68527;39.470;-0.376;2024-01-11T05:01:11;2.40;;;1.40;;
79124;SDS011;68527;39.470;-0.376;2024-01-11T05:03:48;2.50;;;1.50;;
79124;SDS011;68527;39.470;-0.376;2024-01-11T05:06:15;1.80;;;1.10;;
79124;SDS011;68527;39.470;-0.376;2024-01-11T05:08:46;1.80;;;1.10;;
79124;SDS011;68527;39.470;-0.376;2024-01-11T05:11:18;2.70;;;1.50;;
79124;SDS011;68527;39.470;-0.376;2024-01-11T05:13:47;2.90;;;1.60;;
79124;SDS011;68527;39.470;-0.376;2024-01-11T05:16:19;2.20;;;1.40;;
79124;SDS011;68527;39.470;-0.376;2024-01-11T05:18:46;2.30;;;1.40;;
79124;SDS011;68527;39.470;-0.376;2024-01-11T05:21:12;2.60;;;1.70;;
79124;SDS011;68527;39.470;-0.376;2024-01-11T05:23:37;2.90;;;1.60;;
79124;SDS011;68527;39.470;-0.376;2024-01-11T05:26:03;4.10;;;1.80;;
79124;SDS011;68527;39.470;-0.376;2024-01-11T05:28:31;2.20;;;1.60;;
79124;SDS011;68527;39.470;-0.376;2024-01-11T05:30:56;2.10;;;1.60;;
79124;SDS011;68527;39.470;-0.376;2024-01-11T05:33:22;2.80;;;1.40;;
79124;SDS011;68527;39.470;-0.376;2024-01-11T05:35:47;2.00;;;1.60;;
79124;SDS011;68527;39.470;-0.376;2024-01-11T05:38:15;2.00;;;1.40;;
79124;SDS011;68527;39.470;-0.376;2024-01-11T05:40:41;3.30;;;1.70;;
79124;SDS011;68527;39.470;-0.376;2024-01-11T05:43:06;2.20;;;1.50;;
79124;SDS011;68527;39.470;-0.376;2024-01-11T05:45:32;2.40;;;1.80;;
79124;SDS011;68527;39.470;-0.376;2024-01-11T05:48:01;2.30;;;1.80;;
79124;SDS011;68527;39.470;-0.376;2024-01-11T05:50:27;3.00;;;1.70;;
79124;SDS011;68527;39.470;-0.376;2024-01-11T05:52:53;3.70;;;2.00;;
79124;SDS011;68527;39.470;-0.376;2024-01-11T05:55:22;2.50;;;2.10;;
79124;SDS011;68527;39.470;-0.376;2024-01-11T05:57:48;2.90;;;2.00;;
79124;SDS011;68527;39.470;-0.376;2024-01-11T06:00:13;3.80;;;2.20;;
79124;SDS011;68527;39.470;-0.376;2024-01-11T06:02:40;3.60;;;2.30;;
79124;SDS011;68527;39.470;-0.376;2024-01-11T06:05:10;3.00;;;1.90;;
79124;SDS011;68527;39.470;-0.376;2024-01-11T06:07:37;3.50;;;2.00;;
79124;SDS011;68527;39.470;-0.376;2024-01-11T06:10:05;3.60;;;2.50;;
79124;SDS011;68527;39.470;-0.376;2024-01-11T06:12:31;2.70;;;1.80;;
79124;SDS011;68527;39.470;-0.376;2024-01-11T06:14:58;3.00;;;2.10;;
79124;SDS011;68527;39.470;-0.376;2024-01-11T06:17:23;3.00;;;1.90;;
79124;SDS011;68527;39.470;-0.376;2024-01-11T06:19:50;2.50;;;2.10;;
79124;SDS011;68527;39.470;-0.376;2024-01-11T06:22:16;3.10;;;1.90;;
79124;SDS011;68527;39.470;-0.376;2024-01-11T06:24:41;3.20;;;2.10;;
79124;SDS011;68527;39.470;-0.376;2024-01-11T06:27:07;2.90;;;2.10;;
79124;SDS011;68527;39.470;-0.376;2024-01-11T06:29:32;2.50;;;2.30;;
79124;SDS011;68527;39.470;-0.376;2024-01-11T06:32:00;2.70;;;1.90;;
79124;SDS011;68527;39.470;-0.376;2024-01-11T06:34:25;2.80;;;1.90;;
79124;SDS011;68527;39.470;-0.376;2024-01-11T06:36:51;2.90;;;1.80;;
79124;SDS011;68527;39.470;-0.376;2024-01-11T06:39:20;4.10;;;1.90;;
79124;SDS011;68527;39.470;-0.376;2024-01-11T06:41:46;4.20;;;2.40;;
79124;SDS011;68527;39.470;-0.376;2024-01-11T06:44:12;3.10;;;2.00;;
79124;SDS011;68527;39.470;-0.376;2024-01-11T06:46:37;2.80;;;2.00;;
79124;SDS011;68527;39.470;-0.376;2024-01-11T06:49:07;4.00;;;1.80;;
79124;SDS011;68527;39.470;-0.376;2024-01-11T06:51:33;2.60;;;1.60;;
79124;SDS011;68527;39.470;-0.376;2024-01-11T06:53:59;3.40;;;2.10;;
79124;SDS011;68527;39.470;-0.376;2024-01-11T06:56:26;2.30;;;1.60;;
79124;SDS011;68527;39.470;-0.376;2024-01-11T06:58:54;2.80;;;2.00;;
79124;SDS011;68527;39.470;-0.376;2024-01-11T07:01:19;4.70;;;2.10;;
79124;SDS011;68527;39.470;-0.376;2024-01-11T07:03:45;2.80;;;2.00;;
79124;SDS011;68527;39.470;-0.376;2024-01-11T07:06:11;3.90;;;2.00;;
79124;SDS011;68527;39.470;-0.376;2024-01-11T07:08:38;3.40;;;2.00;;
79124;SDS011;68527;39.470;-0.376;2024-01-11T07:11:04;2.60;;;1.70;;
79124;SDS011;68527;39.470;-0.376;2024-01-11T07:13:30;2.40;;;1.80;;
79124;SDS011;68527;39.470;-0.376;2024-01-11T07:15:56;3.10;;;1.80;;
79124;SDS011;68527;39.470;-0.376;2024-01-11T07:18:24;2.80;;;2.10;;
79124;SDS011;68527;39.470;-0.376;2024-01-11T07:20:50;3.00;;;1.90;;
79124;SDS011;68527;39.470;-0.376;2024-01-11T07:23:16;3.50;;;2.00;;
79124;SDS011;68527;39.470;-0.376;2024-01-11T07:25:44;3.50;;;1.80;;
79124;SDS011;68527;39.470;-0.376;2024-01-11T07:28:10;2.90;;;2.00;;
79124;SDS011;68527;39.470;-0.376;2024-01-11T07:30:36;2.70;;;1.70;;
79124;SDS011;68527;39.470;-0.376;2024-01-11T07:33:02;2.90;;;2.10;;
79124;SDS011;68527;39.470;-0.376;2024-01-11T07:35:31;2.30;;;1.50;;
79124;SDS011;68527;39.470;-0.376;2024-01-11T07:37:56;3.90;;;2.00;;
79124;SDS011;68527;39.470;-0.376;2024-01-11T07:40:23;4.00;;;2.10;;
79124;SDS011;68527;39.470;-0.376;2024-01-11T07:42:49;2.50;;;1.70;;
79124;SDS011;68527;39.470;-0.376;2024-01-11T07:45:16;3.00;;;1.90;;
79124;SDS011;68527;39.470;-0.376;2024-01-11T07:47:42;2.10;;;1.70;;
79124;SDS011;68527;39.470;-0.376;2024-01-11T07:50:08;2.90;;;2.00;;
79124;SDS011;68527;39.470;-0.376;2024-01-11T07:52:35;2.70;;;1.90;;
79124;SDS011;68527;39.470;-0.376;2024-01-11T07:55:03;2.90;;;2.00;;
79124;SDS011;68527;39.470;-0.376;2024-01-11T07:57:35;3.40;;;1.80;;
79124;SDS011;68527;39.470;-0.376;2024-01-11T08:02:33;3.50;;;1.50;;
79124;SDS011;68527;39.470;-0.376;2024-01-11T08:04:59;3.40;;;1.70;;
79124;SDS011;68527;39.470;-0.376;2024-01-11T08:07:27;4.10;;;1.90;;
79124;SDS011;68527;39.470;-0.376;2024-01-11T08:09:53;3.50;;;2.10;;
79124;SDS011;68527;39.470;-0.376;2024-01-11T08:12:19;4.50;;;1.80;;
79124;SDS011;68527;39.470;-0.376;2024-01-11T08:14:44;3.00;;;1.70;;
79124;SDS011;68527;39.470;-0.376;2024-01-11T08:17:13;7.20;;;2.10;;
79124;SDS011;68527;39.470;-0.376;2024-01-11T08:19:39;4.60;;;2.10;;
79124;SDS011;68527;39.470;-0.376;2024-01-11T08:22:07;3.10;;;1.60;;
79124;SDS011;68527;39.470;-0.376;2024-01-11T08:24:35;3.80;;;1.70;;
79124;SDS011;68527;39.470;-0.376;2024-01-11T08:27:01;3.40;;;1.70;;
79124;SDS011;68527;39.470;-0.376;2024-01-11T08:29:27;3.00;;;1.70;;
79124;SDS011;68527;39.470;-0.376;2024-01-11T08:31:53;2.90;;;1.70;;
79124;SDS011;68527;39.470;-0.376;2024-01-11T08:34:21;4.50;;;1.50;;
79124;SDS011;68527;39.470;-0.376;2024-01-11T08:36:47;2.80;;;1.50;;
79124;SDS011;68527;39.470;-0.376;2024-01-11T08:39:13;2.90;;;1.60;;
79124;SDS011;68527;39.470;-0.376;2024-01-11T08:41:42;2.80;;;1.70;;
79124;SDS011;68527;39.470;-0.376;2024-01-11T08:44:08;2.50;;;1.60;;
79124;SDS011;68527;39.470;-0.376;2024-01-11T08:46:33;2.50;;;1.50;;
79124;SDS011;68527;39.470;-0.376;2024-01-11T08:49:00;4.10;;;1.70;;
79124;SDS011;68527;39.470;-0.376;2024-01-11T08:51:29;2.90;;;1.60;;
79124;SDS011;68527;39.470;-0.376;2024-01-11T08:53:55;4.00;;;1.80;;
79124;SDS011;68527;39.470;-0.376;2024-01-11T08:56:21;3.60;;;1.40;;
79124;SDS011;68527;39.470;-0.376;2024-01-11T08:58:47;4.00;;;1.70;;
79124;SDS011;68527;39.470;-0.376;2024-01-11T09:01:17;4.40;;;2.10;;
79124;SDS011;68527;39.470;-0.376;2024-01-11T09:03:45;3.60;;;1.70;;
79124;SDS011;68527;39.470;-0.376;2024-01-11T09:06:15;2.40;;;1.40;;
79124;SDS011;68527;39.470;-0.376;2024-01-11T09:08:40;4.30;;;1.50;;
79124;SDS011;68527;39.470;-0.376;2024-01-11T09:11:07;4.60;;;1.80;;
79124;SDS011;68527;39.470;-0.376;2024-01-11T09:13:37;2.30;;;1.30;;
79124;SDS011;68527;39.470;-0.376;2024-01-11T09:16:05;3.60;;;1.50;;
79124;SDS011;68527;39.470;-0.376;2024-01-11T09:18:32;3.20;;;1.60;;
79124;SDS011;68527;39.470;-0.376;2024-01-11T09:20:59;4.40;;;1.50;;
79124;SDS011;68527;39.470;-0.376;2024-01-11T09:23:25;3.60;;;1.70;;
79124;SDS011;68527;39.470;-0.376;2024-01-11T09:25:50;3.70;;;1.50;;
79124;SDS011;68527;39.470;-0.376;2024-01-11T09:28:16;3.60;;;1.40;;
79124;SDS011;68527;39.470;-0.376;2024-01-11T09:30:44;2.40;;;1.10;;
79124;SDS011;68527;39.470;-0.376;2024-01-11T09:33:09;3.10;;;1.40;;
79124;SDS011;68527;39.470;-0.376;2024-01-11T09:35:36;3.80;;;1.50;;
79124;SDS011;68527;39.470;-0.376;2024-01-11T09:38:01;4.40;;;1.50;;
79124;SDS011;68527;39.470;-0.376;2024-01-11T09:40:28;2.60;;;1.40;;
79124;SDS011;68527;39.470;-0.376;2024-01-11T09:42:54;3.30;;;1.50;;
79124;SDS011;68527;39.470;-0.376;2024-01-11T09:45:19;5.00;;;1.40;;
79124;SDS011;68527;39.470;-0.376;2024-01-11T09:50:16;2.80;;;1.30;;
79124;SDS011;68527;39.470;-0.376;2024-01-11T09:52:49;3.40;;;1.20;;
79124;SDS011;68527;39.470;-0.376;2024-01-11T09:55:18;3.80;;;1.40;;
79124;SDS011;68527;39.470;-0.376;2024-01-11T09:57:44;2.90;;;1.30;;
79124;SDS011;68527;39.470;-0.376;2024-01-11T10:00:13;4.10;;;1.20;;
79124;SDS011;68527;39.470;-0.376;2024-01-11T10:02:41;3.10;;;1.50;;
79124;SDS011;68527;39.470;-0.376;2024-01-11T10:05:07;4.30;;;1.60;;
79124;SDS011;68527;39.470;-0.376;2024-01-11T10:07:34;1.90;;;1.00;;
79124;SDS011;68527;39.470;-0.376;2024-01-11T10:10:00;4.40;;;1.30;;
79124;SDS011;68527;39.470;-0.376;2024-01-11T10:12:28;2.60;;;1.20;;
79124;SDS011;68527;39.470;-0.376;2024-01-11T10:14:55;4.50;;;1.10;;
79124;SDS011;68527;39.470;-0.376;2024-01-11T10:17:31;3.70;;;1.40;;
79124;SDS011;68527;39.470;-0.376;2024-01-11T10:19:57;3.40;;;1.50;;
79124;SDS011;68527;39.470;-0.376;2024-01-11T10:22:24;4.80;;;1.50;;
79124;SDS011;68527;39.470;-0.376;2024-01-11T10:25:04;4.50;;;1.70;;
79124;SDS011;68527;39.470;-0.376;2024-01-11T10:27:38;3.00;;;1.40;;
79124;SDS011;68527;39.470;-0.376;2024-01-11T10:30:07;3.00;;;1.10;;
79124;SDS011;68527;39.470;-0.376;2024-01-11T10:32:33;2.10;;;1.10;;
79124;SDS011;68527;39.470;-0.376;2024-01-11T10:35:01;2.60;;;1.20;;
79124;SDS011;68527;39.470;-0.376;2024-01-11T10:37:30;2.30;;;1.30;;
79124;SDS011;68527;39.470;-0.376;2024-01-11T10:40:02;3.10;;;1.30;;
79124;SDS011;68527;39.470;-0.376;2024-01-11T10:42:45;2.90;;;1.20;;
79124;SDS011;68527;39.470;-0.376;2024-01-11T10:45:19;2.40;;;1.30;;
79124;SDS011;68527;39.470;-0.376;2024-01-11T10:50:23;1.90;;;1.10;;
79124;SDS011;68527;39.470;-0.376;2024-01-11T10:52:56;3.40;;;1.00;;
79124;SDS011;68527;39.470;-0.376;2024-01-11T10:55:33;1.90;;;1.10;;
79124;SDS011;68527;39.470;-0.376;2024-01-11T10:58:00;2.60;;;1.40;;
79124;SDS011;68527;39.470;-0.376;2024-01-11T11:00:29;2.40;;;1.10;;
79124;SDS011;68527;39.470;-0.376;2024-01-11T11:02:55;1.80;;;1.00;;
79124;SDS011;68527;39.470;-0.376;2024-01-11T11:05:21;2.80;;;1.10;;
79124;SDS011;68527;39.470;-0.376;2024-01-11T11:07:51;1.70;;;1.10;;
79124;SDS011;68527;39.470;-0.376;2024-01-11T11:10:18;2.20;;;1.10;;
79124;SDS011;68527;39.470;-0.376;2024-01-11T11:12:45;2.90;;;1.30;;
79124;SDS011;68527;39.470;-0.376;2024-01-11T11:15:13;2.70;;;1.10;;
79124;SDS011;68527;39.470;-0.376;2024-01-11T11:17:39;1.60;;;0.90;;
79124;SDS011;68527;39.470;-0.376;2024-01-11T11:20:09;4.10;;;1.20;;
79124;SDS011;68527;39.470;-0.376;2024-01-11T11:22:40;1.70;;;1.10;;
79124;SDS011;68527;39.470;-0.376;2024-01-11T11:25:09;1.90;;;1.00;;
79124;SDS011;68527;39.470;-0.376;2024-01-11T11:27:39;2.00;;;1.00;;
79124;SDS011;68527;39.470;-0.376;2024-01-11T11:30:05;4.60;;;1.20;;
79124;SDS011;68527;39.470;-0.376;2024-01-11T11:32:38;2.10;;;1.10;;
79124;SDS011;68527;39.470;-0.376;2024-01-11T11:35:06;2.10;;;1.10;;
79124;SDS011;68527;39.470;-0.376;2024-01-11T11:37:33;2.60;;;1.10;;
79124;SDS011;68527;39.470;-0.376;2024-01-11T11:40:01;2.10;;;1.00;;
79124;SDS011;68527;39.470;-0.376;2024-01-11T11:42:32;1.70;;;1.10;;
79124;SDS011;68527;39.470;-0.376;2024-01-11T11:45:00;1.90;;;1.00;;
79124;SDS011;68527;39.470;-0.376;2024-01-11T11:47:33;1.90;;;0.70;;
79124;SDS011;68527;39.470;-0.376;2024-01-11T11:50:03;2.80;;;1.00;;
79124;SDS011;68527;39.470;-0.376;2024-01-11T11:52:34;1.80;;;1.00;;
79124;SDS011;68527;39.470;-0.376;2024-01-11T11:55:01;1.50;;;1.00;;
79124;SDS011;68527;39.470;-0.376;2024-01-11T11:59:58;1.80;;;0.90;;
79124;SDS011;68527;39.470;-0.376;2024-01-11T12:02:24;1.90;;;0.90;;
79124;SDS011;68527;39.470;-0.376;2024-01-11T12:04:51;2.40;;;0.80;;
79124;SDS011;68527;39.470;-0.376;2024-01-11T12:07:19;2.30;;;1.30;;
79124;SDS011;68527;39.470;-0.376;2024-01-11T12:09:48;2.30;;;0.90;;
79124;SDS011;68527;39.470;-0.376;2024-01-11T12:12:17;1.90;;;0.90;;
79124;SDS011;68527;39.470;-0.376;2024-01-11T12:14:46;1.70;;;0.80;;
79124;SDS011;68527;39.470;-0.376;2024-01-11T12:17:12;1.80;;;0.80;;
79124;SDS011;68527;39.470;-0.376;2024-01-11T12:19:39;1.40;;;0.80;;
79124;SDS011;68527;39.470;-0.376;2024-01-11T12:22:05;2.20;;;1.10;;
79124;SDS011;68527;39.470;-0.376;2024-01-11T12:24:31;2.10;;;1.00;;
79124;SDS011;68527;39.470;-0.376;2024-01-11T12:26:58;1.80;;;0.80;;
79124;SDS011;68527;39.470;-0.376;2024-01-11T12:29:29;1.60;;;1.00;;
79124;SDS011;68527;39.470;-0.376;2024-01-11T12:31:58;2.00;;;1.10;;
79124;SDS011;68527;39.470;-0.376;2024-01-11T12:34:25;2.30;;;1.00;;
79124;SDS011;68527;39.470;-0.376;2024-01-11T12:36:52;1.90;;;0.70;;
79124;SDS011;68527;39.470;-0.376;2024-01-11T12:39:19;1.40;;;0.80;;
79124;SDS011;68527;39.470;-0.376;2024-01-11T12:41:49;1.90;;;0.90;;
79124;SDS011;68527;39.470;-0.376;2024-01-11T12:44:17;2.60;;;1.00;;
79124;SDS011;68527;39.470;-0.376;2024-01-11T12:46:44;1.40;;;0.70;;
79124;SDS011;68527;39.470;-0.376;2024-01-11T12:51:36;1.70;;;0.80;;
79124;SDS011;68527;39.470;-0.376;2024-01-11T12:54:01;1.90;;;0.90;;
79124;SDS011;68527;39.470;-0.376;2024-01-11T12:56:31;2.50;;;1.00;;
79124;SDS011;68527;39.470;-0.376;2024-01-11T12:59:07;2.80;;;1.00;;
79124;SDS011;68527;39.470;-0.376;2024-01-11T13:01:36;2.10;;;1.10;;
79124;SDS011;68527;39.470;-0.376;2024-01-11T13:04:05;1.90;;;0.80;;
79124;SDS011;68527;39.470;-0.376;2024-01-11T13:06:30;1.60;;;0.80;;
79124;SDS011;68527;39.470;-0.376;2024-01-11T13:08:58;3.50;;;0.80;;
79124;SDS011;68527;39.470;-0.376;2024-01-11T13:11:24;1.70;;;1.00;;
79124;SDS011;68527;39.470;-0.376;2024-01-11T13:13:50;1.90;;;1.10;;
79124;SDS011;68527;39.470;-0.376;2024-01-11T13:16:17;2.00;;;0.80;;
79124;SDS011;68527;39.470;-0.376;2024-01-11T13:18:45;1.70;;;0.80;;
79124;SDS011;68527;39.470;-0.376;2024-01-11T13:21:14;2.90;;;0.80;;
79124;SDS011;68527;39.470;-0.376;2024-01-11T13:23:39;2.10;;;0.80;;
79124;SDS011;68527;39.470;-0.376;2024-01-11T13:26:07;2.50;;;0.90;;
79124;SDS011;68527;39.470;-0.376;2024-01-11T13:28:33;2.00;;;0.90;;
79124;SDS011;68527;39.470;-0.376;2024-01-11T13:30:59;2.00;;;1.10;;
79124;SDS011;68527;39.470;-0.376;2024-01-11T13:33:28;1.30;;;0.80;;
79124;SDS011;68527;39.470;-0.376;2024-01-11T13:35:53;1.80;;;1.10;;
79124;SDS011;68527;39.470;-0.376;2024-01-11T13:38:19;1.90;;;1.00;;
79124;SDS011;68527;39.470;-0.376;2024-01-11T13:40:46;1.20;;;0.80;;
79124;SDS011;68527;39.470;-0.376;2024-01-11T13:43:12;1.50;;;1.20;;
79124;SDS011;68527;39.470;-0.376;2024-01-11T13:45:38;2.00;;;1.00;;
79124;SDS011;68527;39.470;-0.376;2024-01-11T13:48:04;1.20;;;0.80;;
79124;SDS011;68527;39.470;-0.376;2024-01-11T13:50:31;1.40;;;0.90;;
79124;SDS011;68527;39.470;-0.376;2024-01-11T13:52:58;1.40;;;1.00;;
79124;SDS011;68527;39.470;-0.376;2024-01-11T13:55:25;2.10;;;1.20;;
79124;SDS011;68527;39.470;-0.376;2024-01-11T13:57:51;1.40;;;0.80;;
79124;SDS011;68527;39.470;-0.376;2024-01-11T14:00:20;1.80;;;1.00;;
79124;SDS011;68527;39.470;-0.376;2024-01-11T14:02:46;2.30;;;1.20;;
79124;SDS011;68527;39.470;-0.376;2024-01-11T14:05:12;2.10;;;1.00;;
79124;SDS011;68527;39.470;-0.376;2024-01-11T14:07:40;2.30;;;1.30;;
79124;SDS011;68527;39.470;-0.376;2024-01-11T14:10:08;2.30;;;1.00;;
79124;SDS011;68527;39.470;-0.376;2024-01-11T14:12:37;1.80;;;1.10;;
79124;SDS011;68527;39.470;-0.376;2024-01-11T14:15:03;1.70;;;1.00;;
79124;SDS011;68527;39.470;-0.376;2024-01-11T14:17:33;1.40;;;0.80;;
79124;SDS011;68527;39.470;-0.376;2024-01-11T14:19:59;1.40;;;0.90;;
79124;SDS011;68527;39.470;-0.376;2024-01-11T14:24:54;1.50;;;1.00;;
79124;SDS011;68527;39.470;-0.376;2024-01-11T14:27:20;1.30;;;0.80;;
79124;SDS011;68527;39.470;-0.376;2024-01-11T14:29:46;1.80;;;0.90;;
79124;SDS011;68527;39.470;-0.376;2024-01-11T14:32:15;2.40;;;1.00;;
79124;SDS011;68527;39.470;-0.376;2024-01-11T14:34:44;2.40;;;1.10;;
79124;SDS011;68527;39.470;-0.376;2024-01-11T14:37:10;2.40;;;1.10;;
79124;SDS011;68527;39.470;-0.376;2024-01-11T14:39:38;2.50;;;1.10;;
79124;SDS011;68527;39.470;-0.376;2024-01-11T14:42:04;1.50;;;0.90;;
79124;SDS011;68527;39.470;-0.376;2024-01-11T14:44:30;2.10;;;0.80;;
79124;SDS011;68527;39.470;-0.376;2024-01-11T14:46:59;2.20;;;1.10;;
79124;SDS011;68527;39.470;-0.376;2024-01-11T14:49:25;2.10;;;1.00;;
79124;SDS011;68527;39.470;-0.376;2024-01-11T14:51:51;2.60;;;1.30;;
79124;SDS011;68527;39.470;-0.376;2024-01-11T14:54:17;2.80;;;1.20;;